Time;durP1;ratioP1;P1;durP2;ratioP2;P2;SDS_P1;SDS_P2;PMS_P1;PMS_P2;Temp;Humidity;BMP_temperature;BMP_pressure;BME280_temperature;BME280_humidity;BME280_pressure;Samples;Min_cycle;Max_cycle;Signal;HPM_P1;HPM_P2
2022/04/06 00:06:18;;;;;;;16.60;8.17;;;;;;;5.83;100.00;99700.69;31185652;28;20062;-73
2022/04/06 00:21:40;;;;;;;18.47;8.37;;;;;;;5.85;100.00;99704.91;31196552;28;20098;-73
2022/04/06 00:36:42;;;;;;;19.90;7.83;;;;;;;5.89;100.00;99703.00;31196860;28;20103;-72
2022/04/06 00:51:49;;;;;;;13.73;7.57;;;;;;;5.93;100.00;99698.31;31188953;28;20100;-72
2022/04/06 01:06:53;;;;;;;13.07;7.17;;;;;;;5.95;100.00;99696.00;31188101;28;20057;-74
2022/04/06 01:21:55;;;;;;;18.90;7.93;;;;;;;5.99;100.00;99705.59;31234748;28;20054;-71
2022/04/06 01:36:57;;;;;;;14.63;7.73;;;;;;;6.11;100.00;99731.31;31220009;28;20457;-71
2022/04/06 01:52:12;;;;;;;16.80;7.90;;;;;;;6.23;100.00;99711.94;31218432;28;20049;-73
2022/04/06 02:07:14;;;;;;;17.23;8.47;;;;;;;6.37;100.00;99716.47;31209556;28;20065;-72
2022/04/06 02:22:18;;;;;;;12.03;7.03;;;;;;;6.44;100.00;99714.47;31206134;28;20648;-73
2022/04/06 02:37:20;;;;;;;15.60;8.50;;;;;;;6.43;100.00;99734.50;31209547;28;21658;-71
2022/04/06 02:52:22;;;;;;;15.27;6.70;;;;;;;6.38;100.00;99729.53;31212772;28;20057;-72
2022/04/06 03:07:25;;;;;;;13.90;7.20;;;;;;;6.34;100.00;99755.78;31203894;28;20072;-72
2022/04/06 03:22:27;;;;;;;14.97;7.03;;;;;;;6.29;100.00;99764.28;31204716;28;20053;-73
2022/04/06 03:37:29;;;;;;;11.57;6.33;;;;;;;6.26;100.00;99785.88;31212369;28;20144;-73
2022/04/06 03:52:32;;;;;;;13.60;6.30;;;;;;;6.41;100.00;99798.06;31203233;28;20057;-72
2022/04/06 04:07:37;;;;;;;11.63;5.50;;;;;;;6.63;100.00;99831.03;31194198;28;20053;-72
2022/04/06 04:22:39;;;;;;;11.07;5.80;;;;;;;6.84;100.00;99841.66;31194441;28;20497;-73
2022/04/06 04:37:42;;;;;;;17.07;7.23;;;;;;;7.12;100.00;99862.97;31189812;28;20053;-74
2022/04/06 04:52:44;;;;;;;22.90;11.87;;;;;;;7.28;100.00;99880.59;31196053;28;20643;-73
2022/04/06 05:07:46;;;;;;;15.83;6.70;;;;;;;7.29;100.00;99899.09;31211125;28;20492;-73
2022/04/06 05:22:48;;;;;;;17.70;7.73;;;;;;;7.42;100.00;99904.75;31223605;28;20049;-74
2022/04/06 05:37:51;;;;;;;18.60;6.30;;;;;;;7.73;100.00;99922.56;31211198;28;20638;-73
2022/04/06 05:52:54;;;;;;;13.77;6.57;;;;;;;8.47;100.00;99920.91;31216892;28;20049;-71
2022/04/06 06:07:56;;;;;;;16.63;7.50;;;;;;;10.17;91.28;99940.78;31229143;28;20112;-73
2022/04/06 06:22:58;;;;;;;11.30;6.33;;;;;;;11.91;81.77;99952.97;31203531;28;20766;-74
2022/04/06 06:38:00;;;;;;;31.50;11.53;;;;;;;13.21;71.92;99952.22;31215415;28;20448;-72
2022/04/06 06:53:02;;;;;;;10.27;5.70;;;;;;;14.22;65.07;99978.31;31232180;28;20049;-73
2022/04/06 07:08:05;;;;;;;8.20;4.83;;;;;;;14.80;62.79;100008.53;31201793;28;20073;-72
2022/04/06 07:23:07;;;;;;;10.90;5.00;;;;;;;15.56;56.85;100015.31;31200348;28;20046;-72
2022/04/06 07:38:12;;;;;;;7.30;3.90;;;;;;;15.47;52.63;100020.75;31191584;28;20140;-71
2022/04/06 07:53:15;;;;;;;6.73;3.80;;;;;;;16.74;47.39;100024.66;31191839;28;20110;-77
2022/04/06 08:08:17;;;;;;;7.27;3.73;;;;;;;17.84;43.77;100031.09;31204413;28;20057;-75
2022/04/06 08:23:20;;;;;;;4.78;3.22;;;;;;;18.04;41.12;100033.22;31217342;28;20053;-77
2022/04/06 08:38:23;;;;;;;5.43;3.33;;;;;;;17.77;40.35;100023.19;31217501;28;20104;-77
2022/04/06 09:09:09;;;;;;;5.05;2.47;;;;;;;19.40;36.48;100028.16;31332475;22;20051;-76
2022/04/06 09:24:19;;;;;;;4.55;2.72;;;;;;;19.83;34.56;100011.19;30847522;28;20074;-78
2022/04/06 09:39:43;;;;;;;6.15;2.58;;;;;;;19.17;35.75;100031.84;30865431;28;20050;-69
2022/04/06 09:54:46;;;;;;;4.75;3.67;;;;;;;18.16;36.95;100034.94;30886931;28;20069;-81
2022/04/06 10:09:50;;;;;;;4.53;3.03;;;;;;;17.72;39.56;100051.28;30879963;28;20054;-72
2022/04/06 10:25:17;;;;;;;5.53;3.20;;;;;;;19.05;36.91;100046.69;30867936;28;20110;-71
2022/04/06 10:40:21;;;;;;;3.53;2.10;;;;;;;18.53;37.02;100057.31;30861030;28;20539;-71
2022/04/06 10:55:24;;;;;;;5.30;3.10;;;;;;;19.11;36.07;100039.28;30855532;28;20055;-72
2022/04/06 11:10:26;;;;;;;5.80;3.45;;;;;;;20.01;36.80;100036.44;30854606;28;20074;-71
2022/04/06 11:25:45;;;;;;;4.00;2.33;;;;;;;20.54;34.68;100046.28;30875391;28;20055;-77
2022/04/06 11:40:47;;;;;;;5.40;2.40;;;;;;;18.89;36.37;100049.94;30875720;28;20104;-73
2022/04/06 11:55:53;;;;;;;3.80;2.20;;;;;;;17.84;37.39;100042.06;30853716;28;20530;-70
2022/04/06 12:10:56;;;;;;;7.50;2.50;;;;;;;17.04;38.65;100029.09;30845526;28;20082;-71
2022/04/06 12:26:08;;;;;;;5.33;3.13;;;;;;;16.50;40.75;100038.25;30858973;28;20059;-80
2022/04/06 12:41:13;;;;;;;4.30;2.05;;;;;;;16.36;38.88;100034.16;30859063;28;20470;-74
2022/04/06 12:56:23;;;;;;;3.67;2.07;;;;;;;16.17;38.81;100022.47;30858163;28;20063;-76
2022/04/06 13:27:38;;;;;;;3.27;1.93;;;;;;;15.71;38.81;100016.25;30877204;28;20054;-78
2022/04/06 13:42:44;;;;;;;3.80;2.00;;;;;;;15.74;38.33;100034.50;30889827;28;20043;-72
2022/04/06 13:57:46;;;;;;;3.57;1.80;;;;;;;15.69;39.22;100043.28;30864294;28;20058;-70
2022/04/06 14:12:48;;;;;;;4.47;2.53;;;;;;;15.54;39.31;100042.34;30855975;28;20050;-68
2022/04/06 14:44:17;;;;;;;5.07;2.60;;;;;;;15.15;40.18;100033.72;30923799;28;20405;-70
2022/04/06 14:59:19;;;;;;;4.20;2.17;;;;;;;15.05;40.45;100029.44;30871557;28;20062;-80
2022/04/06 15:14:21;;;;;;;4.47;2.80;;;;;;;14.96;40.37;100034.88;30861493;28;20065;-71
2022/04/06 15:29:24;;;;;;;4.77;2.33;;;;;;;14.73;40.57;100024.44;30845000;28;20051;-70
2022/04/06 15:44:26;;;;;;;3.00;2.20;;;;;;;14.55;41.01;100031.34;30854328;28;20051;-70
2022/04/06 15:59:28;;;;;;;4.00;2.37;;;;;;;14.28;41.46;100033.88;30860285;28;20533;-72
2022/04/06 16:14:30;;;;;;;5.03;2.67;;;;;;;14.08;42.04;100041.59;30856929;28;20067;-70
2022/04/06 16:29:32;;;;;;;6.73;2.60;;;;;;;13.80;42.55;100055.03;30852938;28;20133;-70
2022/04/06 16:44:36;;;;;;;3.87;2.60;;;;;;;13.60;42.78;100062.72;30873533;28;20142;-79
2022/04/06 16:59:38;;;;;;;3.27;2.17;;;;;;;13.55;43.27;100087.81;30879295;28;20105;-81
2022/04/06 17:14:40;;;;;;;5.23;2.93;;;;;;;13.42;43.40;100111.59;30862332;28;20065;-71
2022/04/06 17:29:43;;;;;;;8.20;3.53;;;;;;;13.17;43.96;100128.72;30877257;28;20477;-72
2022/04/06 17:44:45;;;;;;;7.13;3.10;;;;;;;12.97;45.05;100134.34;30855812;28;20062;-71
2022/04/06 17:59:48;;;;;;;6.33;2.73;;;;;;;12.72;46.76;100169.69;30857146;28;20058;-72
2022/04/06 18:14:51;;;;;;;5.57;3.37;;;;;;;12.29;49.57;100192.56;30855476;28;20558;-71
2022/04/06 18:29:54;;;;;;;7.70;3.30;;;;;;;11.72;52.27;100202.06;30869607;28;20074;-72
2022/04/06 18:44:56;;;;;;;5.47;3.67;;;;;;;11.15;57.11;100195.13;30864469;28;20050;-70
2022/04/06 18:59:58;;;;;;;13.37;4.70;;;;;;;10.79;61.72;100205.94;30847880;28;20396;-72
2022/04/06 19:15:01;;;;;;;5.20;3.93;;;;;;;10.53;63.64;100207.59;30842865;28;20574;-71
2022/04/06 19:30:05;;;;;;;5.67;2.90;;;;;;;10.17;66.18;100210.09;30843678;28;20093;-69
2022/04/06 19:45:09;;;;;;;5.27;3.13;;;;;;;9.85;67.78;100221.47;30851215;28;20062;-72
2022/04/06 20:00:12;;;;;;;6.00;3.77;;;;;;;9.60;69.62;100234.59;30850699;28;20058;-71
2022/04/06 20:15:15;;;;;;;4.77;3.30;;;;;;;9.23;73.67;100255.16;30861158;28;20051;-70
2022/04/06 20:30:17;;;;;;;7.70;4.17;;;;;;;8.87;77.01;100259.44;30857931;28;20507;-70
2022/04/06 20:45:20;;;;;;;7.90;4.40;;;;;;;8.64;78.73;100264.72;30842064;28;20510;-70
2022/04/06 21:00:23;;;;;;;10.50;4.43;;;;;;;8.24;82.93;100258.84;30838802;28;20069;-75
2022/04/06 21:15:25;;;;;;;8.60;4.20;;;;;;;7.99;84.08;100271.75;30859065;28;20479;-70
2022/04/06 21:30:27;;;;;;;6.50;4.60;;;;;;;7.75;91.33;100268.81;30867748;28;20055;-71
2022/04/06 21:45:29;;;;;;;6.03;4.50;;;;;;;7.62;88.90;100273.13;30883210;28;20083;-69
2022/04/06 22:00:34;;;;;;;6.17;4.27;;;;;;;7.44;90.40;100278.59;30880828;28;20474;-70
2022/04/06 22:15:43;;;;;;;9.77;4.37;;;;;;;7.25;88.25;100276.38;30870215;28;20431;-70
2022/04/06 22:30:45;;;;;;;7.90;4.20;;;;;;;6.85;91.66;100280.31;30869267;28;20061;-70
2022/04/06 22:45:48;;;;;;;11.67;5.70;;;;;;;6.40;92.38;100276.50;30863735;28;20054;-71
2022/04/06 23:00:50;;;;;;;6.73;3.77;;;;;;;5.98;97.44;100277.22;30874759;28;20074;-70
2022/04/06 23:15:52;;;;;;;10.60;5.70;;;;;;;5.67;100.00;100265.97;30865698;28;20776;-70
2022/04/06 23:30:55;;;;;;;10.73;4.83;;;;;;;5.49;100.00;100263.22;30864227;28;20042;-70
2022/04/06 23:45:57;;;;;;;8.73;5.23;;;;;;;5.29;100.00;100242.38;30865467;28;20431;-70
